sensor_id;sensor_type;location;lat;lon;timestamp;pressure;altitude;pressure_sealevel;temperature;humidity
57000;BME280;42891;50.006;21.964;2023-02-18T00:00:13;98374.94;;;5.63;100.00
57000;BME280;42891;50.006;21.964;2023-02-18T00:04:13;98378.53;;;5.73;100.00
57000;BME280;42891;50.006;21.964;2023-02-18T00:08:14;98393.50;;;5.83;100.00
57000;BME280;42891;50.006;21.964;2023-02-18T00:12:14;98395.41;;;5.92;100.00
57000;BME280;42891;50.006;21.964;2023-02-18T00:16:14;98405.78;;;5.93;100.00
57000;BME280;42891;50.006;21.964;2023-02-18T00:20:14;98384.56;;;5.85;100.00
57000;BME280;42891;50.006;21.964;2023-02-18T00:24:15;98400.41;;;6.06;100.00
57000;BME280;42891;50.006;21.964;2023-02-18T00:28:15;98381.94;;;5.96;100.00
57000;BME280;42891;50.006;21.964;2023-02-18T00:32:16;98384.22;;;6.12;100.00
57000;BME280;42891;50.006;21.964;2023-02-18T00:36:17;98394.91;;;6.21;100.00
57000;BME280;42891;50.006;21.964;2023-02-18T00:40:19;98378.66;;;6.38;100.00
57000;BME280;42891;50.006;21.964;2023-02-18T00:44:19;98376.84;;;6.71;100.00
57000;BME280;42891;50.006;21.964;2023-02-18T00:48:19;98359.88;;;6.96;100.00
57000;BME280;42891;50.006;21.964;2023-02-18T00:52:20;98360.09;;;7.36;100.00
57000;BME280;42891;50.006;21.964;2023-02-18T00:56:20;98353.28;;;7.54;100.00
57000;BME280;42891;50.006;21.964;2023-02-18T01:00:21;98356.91;;;7.63;100.00
57000;BME280;42891;50.006;21.964;2023-02-18T01:04:21;98346.56;;;7.81;100.00
57000;BME280;42891;50.006;21.964;2023-02-18T01:08:22;98353.25;;;7.95;100.00
57000;BME280;42891;50.006;21.964;2023-02-18T01:12:22;98337.19;;;7.98;100.00
57000;BME280;42891;50.006;21.964;2023-02-18T01:16:23;98362.69;;;8.17;100.00
57000;BME280;42891;50.006;21.964;2023-02-18T01:20:23;98355.94;;;8.34;98.63
57000;BME280;42891;50.006;21.964;2023-02-18T01:24:24;98353.44;;;8.42;98.47
57000;BME280;42891;50.006;21.964;2023-02-18T01:28:24;98328.81;;;8.33;98.37
57000;BME280;42891;50.006;21.964;2023-02-18T01:32:25;98367.88;;;8.58;97.46
57000;BME280;42891;50.006;21.964;2023-02-18T01:36:26;98325.50;;;8.61;97.49
57000;BME280;42891;50.006;21.964;2023-02-18T01:40:28;98313.03;;;8.53;98.94
57000;BME280;42891;50.006;21.964;2023-02-18T01:44:29;98318.88;;;8.57;96.60
57000;BME280;42891;50.006;21.964;2023-02-18T01:48:34;98319.25;;;8.62;96.25
57000;BME280;42891;50.006;21.964;2023-02-18T01:52:35;98305.84;;;8.55;95.63
57000;BME280;42891;50.006;21.964;2023-02-18T01:56:40;98297.53;;;8.60;91.92
57000;BME280;42891;50.006;21.964;2023-02-18T02:00:42;98295.19;;;8.57;88.00
57000;BME280;42891;50.006;21.964;2023-02-18T02:04:43;98325.06;;;8.75;86.48
57000;BME280;42891;50.006;21.964;2023-02-18T02:08:46;98312.75;;;8.66;84.62
57000;BME280;42891;50.006;21.964;2023-02-18T02:13:02;98305.97;;;8.73;82.52
57000;BME280;42891;50.006;21.964;2023-02-18T02:17:12;98280.59;;;8.82;83.84
57000;BME280;42891;50.006;21.964;2023-02-18T02:35:09;98311.63;;;8.68;81.14
57000;BME280;42891;50.006;21.964;2023-02-18T02:39:26;98330.06;;;8.68;80.13
57000;BME280;42891;50.006;21.964;2023-02-18T02:43:40;98315.66;;;8.63;79.97
57000;BME280;42891;50.006;21.964;2023-02-18T02:52:05;98342.94;;;8.62;78.90
57000;BME280;42891;50.006;21.964;2023-02-18T02:56:16;98348.34;;;8.60;79.30
57000;BME280;42891;50.006;21.964;2023-02-18T03:00:20;98350.81;;;8.42;79.69
57000;BME280;42891;50.006;21.964;2023-02-18T03:09:08;98373.28;;;8.46;78.26
57000;BME280;42891;50.006;21.964;2023-02-18T03:13:20;98375.06;;;8.36;76.94
57000;BME280;42891;50.006;21.964;2023-02-18T03:17:44;98357.72;;;8.14;73.26
57000;BME280;42891;50.006;21.964;2023-02-18T03:21:57;98385.00;;;8.23;73.57
57000;BME280;42891;50.006;21.964;2023-02-18T03:25:59;98391.50;;;8.18;74.04
57000;BME280;42891;50.006;21.964;2023-02-18T03:30:26;98400.47;;;8.16;72.22
57000;BME280;42891;50.006;21.964;2023-02-18T03:34:30;98427.88;;;8.13;70.83
57000;BME280;42891;50.006;21.964;2023-02-18T03:42:38;98430.31;;;7.95;67.18
57000;BME280;42891;50.006;21.964;2023-02-18T03:46:41;98453.44;;;8.01;67.60
57000;BME280;42891;50.006;21.964;2023-02-18T03:50:42;98459.19;;;7.85;66.23
57000;BME280;42891;50.006;21.964;2023-02-18T03:54:43;98430.09;;;7.77;64.91
57000;BME280;42891;50.006;21.964;2023-02-18T03:58:43;98456.53;;;7.76;64.99
57000;BME280;42891;50.006;21.964;2023-02-18T04:02:43;98459.56;;;7.71;65.76
57000;BME280;42891;50.006;21.964;2023-02-18T04:06:44;98447.31;;;7.60;65.26
57000;BME280;42891;50.006;21.964;2023-02-18T04:10:44;98453.38;;;7.51;65.91
57000;BME280;42891;50.006;21.964;2023-02-18T04:14:44;98461.69;;;7.56;64.58
57000;BME280;42891;50.006;21.964;2023-02-18T04:18:44;98467.59;;;7.48;64.65
57000;BME280;42891;50.006;21.964;2023-02-18T04:22:45;98483.59;;;7.45;64.49
57000;BME280;42891;50.006;21.964;2023-02-18T04:26:45;98466.47;;;7.41;64.64
57000;BME280;42891;50.006;21.964;2023-02-18T04:30:46;98464.91;;;7.39;64.54
57000;BME280;42891;50.006;21.964;2023-02-18T04:34:47;98482.56;;;7.37;64.20
57000;BME280;42891;50.006;21.964;2023-02-18T04:38:47;98484.75;;;7.31;64.12
57000;BME280;42891;50.006;21.964;2023-02-18T04:42:47;98470.94;;;7.29;63.65
57000;BME280;42891;50.006;21.964;2023-02-18T04:46:48;98483.53;;;7.36;61.81
57000;BME280;42891;50.006;21.964;2023-02-18T04:50:48;98492.00;;;7.39;61.12
57000;BME280;42891;50.006;21.964;2023-02-18T04:54:48;98476.44;;;7.26;60.38
57000;BME280;42891;50.006;21.964;2023-02-18T04:58:49;98486.34;;;7.23;60.23
57000;BME280;42891;50.006;21.964;2023-02-18T05:02:49;98481.63;;;7.16;59.93
57000;BME280;42891;50.006;21.964;2023-02-18T05:06:49;98489.25;;;7.20;59.67
57000;BME280;42891;50.006;21.964;2023-02-18T05:10:50;98500.00;;;7.16;59.14
57000;BME280;42891;50.006;21.964;2023-02-18T05:14:50;98503.97;;;7.11;59.95
57000;BME280;42891;50.006;21.964;2023-02-18T05:18:50;98510.31;;;7.08;58.09
57000;BME280;42891;50.006;21.964;2023-02-18T05:22:51;98504.91;;;7.10;57.17
57000;BME280;42891;50.006;21.964;2023-02-18T05:26:51;98496.38;;;6.96;56.42
57000;BME280;42891;50.006;21.964;2023-02-18T05:30:51;98506.13;;;7.06;56.80
57000;BME280;42891;50.006;21.964;2023-02-18T05:34:51;98505.72;;;6.89;56.80
57000;BME280;42891;50.006;21.964;2023-02-18T05:38:52;98472.84;;;6.74;56.79
57000;BME280;42891;50.006;21.964;2023-02-18T05:42:52;98475.22;;;6.77;57.15
57000;BME280;42891;50.006;21.964;2023-02-18T05:46:52;98514.63;;;6.98;56.78
57000;BME280;42891;50.006;21.964;2023-02-18T05:50:53;98524.41;;;6.96;57.12
57000;BME280;42891;50.006;21.964;2023-02-18T05:54:53;98523.47;;;6.97;55.91
57000;BME280;42891;50.006;21.964;2023-02-18T05:58:53;98541.00;;;6.96;55.70
57000;BME280;42891;50.006;21.964;2023-02-18T06:02:54;98536.72;;;6.84;56.00
57000;BME280;42891;50.006;21.964;2023-02-18T06:06:54;98552.69;;;6.92;56.42
57000;BME280;42891;50.006;21.964;2023-02-18T06:10:54;98548.75;;;6.98;55.98
57000;BME280;42891;50.006;21.964;2023-02-18T06:14:54;98542.72;;;6.86;55.47
57000;BME280;42891;50.006;21.964;2023-02-18T06:18:55;98530.53;;;6.85;54.27
57000;BME280;42891;50.006;21.964;2023-02-18T06:22:55;98529.59;;;6.86;53.09
57000;BME280;42891;50.006;21.964;2023-02-18T06:26:55;98542.97;;;6.83;53.17
57000;BME280;42891;50.006;21.964;2023-02-18T06:30:56;98555.44;;;6.91;53.29
57000;BME280;42891;50.006;21.964;2023-02-18T06:34:56;98531.47;;;6.84;53.16
57000;BME280;42891;50.006;21.964;2023-02-18T06:38:56;98541.53;;;6.79;54.25
57000;BME280;42891;50.006;21.964;2023-02-18T06:42:58;98546.63;;;6.92;54.75
57000;BME280;42891;50.006;21.964;2023-02-18T06:46:58;98540.88;;;6.98;55.60
57000;BME280;42891;50.006;21.964;2023-02-18T06:50:59;98546.97;;;6.98;56.54
57000;BME280;42891;50.006;21.964;2023-02-18T06:54:59;98534.28;;;7.04;57.31
57000;BME280;42891;50.006;21.964;2023-02-18T06:59:00;98560.31;;;7.07;56.44
57000;BME280;42891;50.006;21.964;2023-02-18T07:03:00;98530.38;;;6.98;55.64
57000;BME280;42891;50.006;21.964;2023-02-18T07:07:02;98545.72;;;7.14;53.70
57000;BME280;42891;50.006;21.964;2023-02-18T07:11:03;98558.53;;;7.28;52.46
57000;BME280;42891;50.006;21.964;2023-02-18T07:15:03;98551.63;;;7.27;52.22
57000;BME280;42891;50.006;21.964;2023-02-18T07:19:03;98564.47;;;7.42;52.65
57000;BME280;42891;50.006;21.964;2023-02-18T07:23:04;98582.25;;;7.38;50.96
57000;BME280;42891;50.006;21.964;2023-02-18T07:27:04;98584.06;;;7.38;51.46
57000;BME280;42891;50.006;21.964;2023-02-18T07:31:05;98590.94;;;7.50;51.70
57000;BME280;42891;50.006;21.964;2023-02-18T07:35:05;98590.00;;;7.40;52.18
57000;BME280;42891;50.006;21.964;2023-02-18T07:39:06;98608.78;;;7.35;51.34
57000;BME280;42891;50.006;21.964;2023-02-18T07:43:06;98597.75;;;7.53;51.35
57000;BME280;42891;50.006;21.964;2023-02-18T07:47:07;98606.09;;;7.46;50.06
57000;BME280;42891;50.006;21.964;2023-02-18T07:51:10;98594.81;;;7.34;49.35
57000;BME280;42891;50.006;21.964;2023-02-18T07:55:11;98585.41;;;7.32;48.22
57000;BME280;42891;50.006;21.964;2023-02-18T07:59:12;98591.72;;;7.29;47.67
57000;BME280;42891;50.006;21.964;2023-02-18T08:03:14;98569.09;;;7.17;47.29
57000;BME280;42891;50.006;21.964;2023-02-18T08:07:16;98611.53;;;7.33;47.05
57000;BME280;42891;50.006;21.964;2023-02-18T08:11:17;98596.84;;;7.31;47.03
57000;BME280;42891;50.006;21.964;2023-02-18T08:15:17;98577.09;;;7.15;46.70
57000;BME280;42891;50.006;21.964;2023-02-18T08:19:17;98606.06;;;7.25;47.56
57000;BME280;42891;50.006;21.964;2023-02-18T08:23:19;98589.88;;;7.09;46.79
57000;BME280;42891;50.006;21.964;2023-02-18T08:27:20;98620.41;;;7.21;47.53
57000;BME280;42891;50.006;21.964;2023-02-18T08:31:23;98573.34;;;6.97;47.12
57000;BME280;42891;50.006;21.964;2023-02-18T08:35:24;98578.69;;;7.07;46.79
57000;BME280;42891;50.006;21.964;2023-02-18T08:39:24;98591.81;;;7.39;48.97
57000;BME280;42891;50.006;21.964;2023-02-18T08:43:24;98591.22;;;7.36;46.17
57000;BME280;42891;50.006;21.964;2023-02-18T08:47:25;98575.47;;;7.36;46.06
57000;BME280;42891;50.006;21.964;2023-02-18T08:51:25;98586.94;;;7.34;46.46
57000;BME280;42891;50.006;21.964;2023-02-18T08:55:26;98614.13;;;7.45;46.38
57000;BME280;42891;50.006;21.964;2023-02-18T08:59:26;98594.91;;;7.44;46.29
57000;BME280;42891;50.006;21.964;2023-02-18T09:03:26;98611.69;;;7.53;45.91
57000;BME280;42891;50.006;21.964;2023-02-18T09:07:27;98604.31;;;7.47;45.26
57000;BME280;42891;50.006;21.964;2023-02-18T09:11:27;98601.44;;;7.50;45.25
57000;BME280;42891;50.006;21.964;2023-02-18T09:15:27;98610.69;;;7.65;45.14
57000;BME280;42891;50.006;21.964;2023-02-18T09:19:28;98623.81;;;7.65;44.42
57000;BME280;42891;50.006;21.964;2023-02-18T09:23:30;98613.72;;;7.82;43.88
57000;BME280;42891;50.006;21.964;2023-02-18T09:27:31;98604.97;;;7.81;44.94
57000;BME280;42891;50.006;21.964;2023-02-18T09:31:31;98622.94;;;7.97;44.65
57000;BME280;42891;50.006;21.964;2023-02-18T09:35:32;98627.44;;;8.07;43.53
57000;BME280;42891;50.006;21.964;2023-02-18T09:39:32;98628.00;;;8.10;43.49
57000;BME280;42891;50.006;21.964;2023-02-18T09:43:35;98639.84;;;8.26;43.85
57000;BME280;42891;50.006;21.964;2023-02-18T09:47:39;98631.41;;;8.01;43.44
57000;BME280;42891;50.006;21.964;2023-02-18T09:51:41;98625.19;;;7.81;43.39
57000;BME280;42891;50.006;21.964;2023-02-18T09:55:43;98602.53;;;7.90;44.20
57000;BME280;42891;50.006;21.964;2023-02-18T09:59:56;98626.44;;;8.08;43.98
57000;BME280;42891;50.006;21.964;2023-02-18T10:04:03;98606.00;;;8.11;43.11
57000;BME280;42891;50.006;21.964;2023-02-18T10:08:19;98613.63;;;8.14;43.47
57000;BME280;42891;50.006;21.964;2023-02-18T10:12:24;98609.53;;;8.00;43.21
57000;BME280;42891;50.006;21.964;2023-02-18T10:16:25;98617.88;;;8.06;42.41
57000;BME280;42891;50.006;21.964;2023-02-18T10:20:28;98608.22;;;8.16;42.33
57000;BME280;42891;50.006;21.964;2023-02-18T10:24:43;98618.38;;;8.21;41.15
57000;BME280;42891;50.006;21.964;2023-02-18T10:28:45;98588.22;;;8.25;41.58
57000;BME280;42891;50.006;21.964;2023-02-18T10:32:47;98589.72;;;8.27;41.51
57000;BME280;42891;50.006;21.964;2023-02-18T10:36:55;98597.66;;;8.58;41.06
57000;BME280;42891;50.006;21.964;2023-02-18T10:41:07;98572.91;;;8.70;40.68
57000;BME280;42891;50.006;21.964;2023-02-18T10:49:54;98567.06;;;8.67;40.84
57000;BME280;42891;50.006;21.964;2023-02-18T10:53:55;98586.59;;;8.64;40.02
57000;BME280;42891;50.006;21.964;2023-02-18T10:57:56;98552.22;;;8.56;40.99
57000;BME280;42891;50.006;21.964;2023-02-18T11:02:03;98563.06;;;8.73;40.07
57000;BME280;42891;50.006;21.964;2023-02-18T11:06:06;98574.03;;;8.78;40.42
57000;BME280;42891;50.006;21.964;2023-02-18T11:14:20;98563.16;;;8.51;40.01
57000;BME280;42891;50.006;21.964;2023-02-18T11:18:42;98576.66;;;8.37;40.21
57000;BME280;42891;50.006;21.964;2023-02-18T11:22:43;98558.50;;;8.44;39.29
57000;BME280;42891;50.006;21.964;2023-02-18T11:26:43;98541.81;;;8.45;39.20
57000;BME280;42891;50.006;21.964;2023-02-18T11:30:46;98549.22;;;8.40;39.93
57000;BME280;42891;50.006;21.964;2023-02-18T11:34:49;98515.78;;;8.51;40.70
57000;BME280;42891;50.006;21.964;2023-02-18T11:38:54;98532.63;;;8.39;40.02
57000;BME280;42891;50.006;21.964;2023-02-18T11:43:16;98550.13;;;8.19;39.30
57000;BME280;42891;50.006;21.964;2023-02-18T11:47:25;98534.59;;;8.16;40.08
57000;BME280;42891;50.006;21.964;2023-02-18T11:51:32;98544.38;;;8.35;40.22
57000;BME280;42891;50.006;21.964;2023-02-18T11:55:35;98528.19;;;8.40;40.54
57000;BME280;42891;50.006;21.964;2023-02-18T11:59:39;98544.75;;;8.61;39.42
57000;BME280;42891;50.006;21.964;2023-02-18T12:03:46;98530.66;;;8.62;38.75
57000;BME280;42891;50.006;21.964;2023-02-18T12:43:05;98504.72;;;8.58;41.25
57000;BME280;42891;50.006;21.964;2023-02-18T12:47:41;98482.69;;;8.59;42.24
57000;BME280;42891;50.006;21.964;2023-02-18T12:56:15;98461.66;;;8.59;43.34
57000;BME280;42891;50.006;21.964;2023-02-18T13:04:46;98487.16;;;8.78;45.44
57000;BME280;42891;50.006;21.964;2023-02-18T13:09:11;98471.06;;;8.51;44.92
57000;BME280;42891;50.006;21.964;2023-02-18T13:13:21;98498.00;;;8.44;45.55
57000;BME280;42891;50.006;21.964;2023-02-18T13:17:24;98486.91;;;8.30;46.28
57000;BME280;42891;50.006;21.964;2023-02-18T13:21:27;98500.38;;;8.37;47.60
57000;BME280;42891;50.006;21.964;2023-02-18T13:25:34;98501.03;;;8.29;48.98
57000;BME280;42891;50.006;21.964;2023-02-18T13:29:47;98505.72;;;8.35;50.57
57000;BME280;42891;50.006;21.964;2023-02-18T13:46:29;98505.72;;;7.64;63.27
57000;BME280;42891;50.006;21.964;2023-02-18T13:50:41;98505.00;;;7.62;65.33
57000;BME280;42891;50.006;21.964;2023-02-18T13:54:45;98485.78;;;7.61;66.23
57000;BME280;42891;50.006;21.964;2023-02-18T13:58:52;98478.22;;;7.68;66.04
57000;BME280;42891;50.006;21.964;2023-02-18T14:02:59;98482.59;;;7.89;66.83
57000;BME280;42891;50.006;21.964;2023-02-18T14:07:28;98459.53;;;8.02;66.03
57000;BME280;42891;50.006;21.964;2023-02-18T14:11:47;98453.16;;;7.95;65.67
57000;BME280;42891;50.006;21.964;2023-02-18T14:15:57;98435.84;;;7.92;65.45
57000;BME280;42891;50.006;21.964;2023-02-18T14:24:01;98435.44;;;7.87;66.42
57000;BME280;42891;50.006;21.964;2023-02-18T14:32:38;98402.44;;;7.42;65.92
57000;BME280;42891;50.006;21.964;2023-02-18T14:36:48;98427.97;;;7.61;65.93
57000;BME280;42891;50.006;21.964;2023-02-18T14:41:08;98391.06;;;7.63;67.44
57000;BME280;42891;50.006;21.964;2023-02-18T14:45:31;98371.81;;;7.53;68.15
57000;BME280;42891;50.006;21.964;2023-02-18T14:49:47;98378.19;;;7.60;70.11
57000;BME280;42891;50.006;21.964;2023-02-18T14:53:48;98376.75;;;7.46;72.22
57000;BME280;42891;50.006;21.964;2023-02-18T14:57:52;98374.06;;;7.36;73.58
57000;BME280;42891;50.006;21.964;2023-02-18T15:01:55;98344.66;;;7.42;74.78
57000;BME280;42891;50.006;21.964;2023-02-18T15:05:56;98343.03;;;7.51;74.56
57000;BME280;42891;50.006;21.964;2023-02-18T15:09:56;98332.44;;;7.31;74.55
57000;BME280;42891;50.006;21.964;2023-02-18T15:13:56;98334.84;;;7.44;74.46
57000;BME280;42891;50.006;21.964;2023-02-18T15:17:57;98344.13;;;7.48;73.88
57000;BME280;42891;50.006;21.964;2023-02-18T15:21:57;98329.78;;;7.53;73.84
57000;BME280;42891;50.006;21.964;2023-02-18T15:25:57;98316.91;;;7.59;74.12
57000;BME280;42891;50.006;21.964;2023-02-18T15:38:30;98297.00;;;7.57;74.35
57000;BME280;42891;50.006;21.964;2023-02-18T15:42:34;98287.75;;;7.53;74.43
57000;BME280;42891;50.006;21.964;2023-02-18T15:46:35;98279.84;;;7.53;75.13
57000;BME280;42891;50.006;21.964;2023-02-18T15:50:37;98250.38;;;7.39;75.40
57000;BME280;42891;50.006;21.964;2023-02-18T15:54:44;98247.31;;;7.44;75.31
57000;BME280;42891;50.006;21.964;2023-02-18T15:58:44;98226.44;;;7.32;75.96
57000;BME280;42891;50.006;21.964;2023-02-18T16:02:52;98198.47;;;7.22;76.28
57000;BME280;42891;50.006;21.964;2023-02-18T16:06:54;98245.16;;;7.68;75.60
57000;BME280;42891;50.006;21.964;2023-02-18T16:11:05;98211.72;;;7.71;75.27
57000;BME280;42891;50.006;21.964;2023-02-18T16:15:10;98210.88;;;7.90;75.00
57000;BME280;42891;50.006;21.964;2023-02-18T16:19:23;98198.28;;;7.93;75.15
57000;BME280;42891;50.006;21.964;2023-02-18T16:23:33;98192.91;;;7.95;75.49
57000;BME280;42891;50.006;21.964;2023-02-18T16:27:37;98193.16;;;8.11;76.17
57000;BME280;42891;50.006;21.964;2023-02-18T16:31:44;98174.34;;;8.06;77.94
57000;BME280;42891;50.006;21.964;2023-02-18T16:35:45;98185.00;;;8.14;78.01
57000;BME280;42891;50.006;21.964;2023-02-18T16:39:45;98171.56;;;8.17;78.25
57000;BME280;42891;50.006;21.964;2023-02-18T16:43:46;98146.41;;;7.95;81.22
57000;BME280;42891;50.006;21.964;2023-02-18T16:47:47;98118.50;;;7.84;80.78
57000;BME280;42891;50.006;21.964;2023-02-18T16:51:48;98141.28;;;8.03;81.49
57000;BME280;42891;50.006;21.964;2023-02-18T16:55:49;98133.00;;;7.98;82.30
57000;BME280;42891;50.006;21.964;2023-02-18T16:59:49;98141.41;;;8.02;83.04
57000;BME280;42891;50.006;21.964;2023-02-18T17:03:50;98134.50;;;8.11;82.53
57000;BME280;42891;50.006;21.964;2023-02-18T17:07:51;98117.88;;;8.10;84.33
57000;BME280;42891;50.006;21.964;2023-02-18T17:11:53;98103.50;;;8.05;83.73
57000;BME280;42891;50.006;21.964;2023-02-18T17:15:56;98075.47;;;7.76;82.44
57000;BME280;42891;50.006;21.964;2023-02-18T17:19:57;98052.56;;;7.58;83.35
57000;BME280;42891;50.006;21.964;2023-02-18T17:23:57;98087.50;;;7.68;84.19
57000;BME280;42891;50.006;21.964;2023-02-18T17:27:57;98079.66;;;7.49;85.21
57000;BME280;42891;50.006;21.964;2023-02-18T17:31:58;98063.75;;;7.21;86.71
57000;BME280;42891;50.006;21.964;2023-02-18T17:35:58;98063.31;;;7.45;87.08
57000;BME280;42891;50.006;21.964;2023-02-18T17:39:59;98041.63;;;7.33;87.67
57000;BME280;42891;50.006;21.964;2023-02-18T17:43:59;98045.91;;;7.54;88.01
57000;BME280;42891;50.006;21.964;2023-02-18T17:48:00;98046.44;;;7.58;89.22
57000;BME280;42891;50.006;21.964;2023-02-18T17:52:01;98057.69;;;7.40;91.56
57000;BME280;42891;50.006;21.964;2023-02-18T17:56:01;98062.22;;;7.28;94.56
57000;BME280;42891;50.006;21.964;2023-02-18T18:00:02;98068.56;;;7.26;97.35
57000;BME280;42891;50.006;21.964;2023-02-18T18:04:10;98052.81;;;7.26;97.69
57000;BME280;42891;50.006;21.964;2023-02-18T18:08:12;98068.03;;;7.03;99.73
57000;BME280;42891;50.006;21.964;2023-02-18T18:12:14;98074.25;;;7.11;100.00
57000;BME280;42891;50.006;21.964;2023-02-18T18:16:16;98062.34;;;7.07;100.00
57000;BME280;42891;50.006;21.964;2023-02-18T18:20:17;98072.56;;;7.10;100.00
57000;BME280;42891;50.006;21.964;2023-02-18T18:24:18;98076.31;;;7.17;100.00
57000;BME280;42891;50.006;21.964;2023-02-18T18:28:19;98081.84;;;7.05;100.00
57000;BME280;42891;50.006;21.964;2023-02-18T18:32:19;98096.34;;;7.09;100.00
57000;BME280;42891;50.006;21.964;2023-02-18T18:36:21;98089.56;;;7.16;100.00
57000;BME280;42891;50.006;21.964;2023-02-18T18:40:29;98096.22;;;7.40;100.00
57000;BME280;42891;50.006;21.964;2023-02-18T18:44:30;98094.59;;;7.48;100.00
57000;BME280;42891;50.006;21.964;2023-02-18T18:48:30;98079.94;;;7.56;100.00
57000;BME280;42891;50.006;21.964;2023-02-18T18:52:30;98092.09;;;7.66;100.00
57000;BME280;42891;50.006;21.964;2023-02-18T18:56:31;98075.47;;;7.66;100.00
57000;BME280;42891;50.006;21.964;2023-02-18T19:00:42;98099.13;;;7.66;100.00
57000;BME280;42891;50.006;21.964;2023-02-18T19:04:42;98089.19;;;7.70;100.00
57000;BME280;42891;50.006;21.964;2023-02-18T19:08:43;98096.09;;;7.71;100.00
57000;BME280;42891;50.006;21.964;2023-02-18T19:12:44;98082.53;;;7.75;100.00
57000;BME280;42891;50.006;21.964;2023-02-18T19:16:45;98071.06;;;7.76;100.00
57000;BME280;42891;50.006;21.964;2023-02-18T19:20:46;98056.53;;;7.72;100.00
57000;BME280;42891;50.006;21.964;2023-02-18T19:24:46;98056.81;;;7.79;100.00
57000;BME280;42891;50.006;21.964;2023-02-18T19:28:47;98071.72;;;7.88;100.00
57000;BME280;42891;50.006;21.964;2023-02-18T19:32:48;98080.16;;;7.82;100.00
57000;BME280;42891;50.006;21.964;2023-02-18T19:36:49;98086.09;;;7.94;100.00
57000;BME280;42891;50.006;21.964;2023-02-18T19:40:49;98060.28;;;7.70;100.00
57000;BME280;42891;50.006;21.964;2023-02-18T19:44:50;98067.72;;;7.84;100.00
57000;BME280;42891;50.006;21.964;2023-02-18T19:48:54;98064.56;;;7.80;100.00
57000;BME280;42891;50.006;21.964;2023-02-18T19:52:55;98080.97;;;7.92;100.00
57000;BME280;42891;50.006;21.964;2023-02-18T19:56:56;98054.56;;;7.84;100.00
57000;BME280;42891;50.006;21.964;2023-02-18T20:00:57;98051.13;;;7.83;100.00
57000;BME280;42891;50.006;21.964;2023-02-18T20:04:58;98058.19;;;7.83;100.00
57000;BME280;42891;50.006;21.964;2023-02-18T20:09:00;98041.94;;;7.97;100.00
57000;BME280;42891;50.006;21.964;2023-02-18T20:13:01;98056.91;;;7.97;100.00
57000;BME280;42891;50.006;21.964;2023-02-18T20:17:06;98034.03;;;8.07;100.00
57000;BME280;42891;50.006;21.964;2023-02-18T20:21:09;98034.19;;;8.06;100.00
57000;BME280;42891;50.006;21.964;2023-02-18T20:25:09;98033.31;;;8.15;100.00
57000;BME280;42891;50.006;21.964;2023-02-18T20:29:10;98039.25;;;8.17;100.00
57000;BME280;42891;50.006;21.964;2023-02-18T20:33:10;98022.56;;;8.08;100.00
57000;BME280;42891;50.006;21.964;2023-02-18T20:37:10;98031.03;;;8.30;100.00
57000;BME280;42891;50.006;21.964;2023-02-18T20:41:12;98054.06;;;8.18;100.00
57000;BME280;42891;50.006;21.964;2023-02-18T20:45:13;98096.00;;;8.19;100.00
57000;BME280;42891;50.006;21.964;2023-02-18T20:49:18;98158.41;;;8.17;100.00
57000;BME280;42891;50.006;21.964;2023-02-18T20:53:19;98164.81;;;7.85;100.00
57000;BME280;42891;50.006;21.964;2023-02-18T20:57:19;98175.06;;;7.79;100.00
57000;BME280;42891;50.006;21.964;2023-02-18T21:01:20;98187.63;;;7.65;100.00
57000;BME280;42891;50.006;21.964;2023-02-18T21:05:20;98204.66;;;7.61;100.00
57000;BME280;42891;50.006;21.964;2023-02-18T21:09:20;98197.03;;;7.58;100.00
57000;BME280;42891;50.006;21.964;2023-02-18T21:13:22;98188.59;;;7.64;100.00
57000;BME280;42891;50.006;21.964;2023-02-18T21:17:23;98187.22;;;7.60;100.00
57000;BME280;42891;50.006;21.964;2023-02-18T21:21:24;98195.94;;;7.51;100.00
57000;BME280;42891;50.006;21.964;2023-02-18T21:25:24;98218.19;;;7.57;100.00
57000;BME280;42891;50.006;21.964;2023-02-18T21:29:25;98215.81;;;7.54;100.00
57000;BME280;42891;50.006;21.964;2023-02-18T21:33:25;98222.19;;;7.51;100.00
57000;BME280;42891;50.006;21.964;2023-02-18T21:37:25;98209.56;;;7.25;100.00
57000;BME280;42891;50.006;21.964;2023-02-18T21:41:27;98244.44;;;7.47;100.00
57000;BME280;42891;50.006;21.964;2023-02-18T21:45:27;98234.59;;;7.39;100.00
57000;BME280;42891;50.006;21.964;2023-02-18T21:49:30;98238.00;;;7.20;100.00
57000;BME280;42891;50.006;21.964;2023-02-18T21:53:31;98242.31;;;7.31;100.00
57000;BME280;42891;50.006;21.964;2023-02-18T21:57:31;98242.16;;;7.23;100.00
57000;BME280;42891;50.006;21.964;2023-02-18T22:01:31;98257.47;;;7.17;100.00
57000;BME280;42891;50.006;21.964;2023-02-18T22:05:32;98264.66;;;7.15;100.00
57000;BME280;42891;50.006;21.964;2023-02-18T22:09:32;98273.50;;;7.14;99.29
57000;BME280;42891;50.006;21.964;2023-02-18T22:13:34;98277.78;;;7.15;100.00
57000;BME280;42891;50.006;21.964;2023-02-18T22:17:34;98281.91;;;7.08;99.11
57000;BME280;42891;50.006;21.964;2023-02-18T22:21:34;98279.56;;;7.05;99.68
57000;BME280;42891;50.006;21.964;2023-02-18T22:25:35;98289.78;;;7.08;98.89
57000;BME280;42891;50.006;21.964;2023-02-18T22:29:35;98315.94;;;7.20;99.37
57000;BME280;42891;50.006;21.964;2023-02-18T22:33:35;98313.97;;;7.12;99.29
57000;BME280;42891;50.006;21.964;2023-02-18T22:37:35;98335.22;;;7.09;99.08
57000;BME280;42891;50.006;21.964;2023-02-18T22:41:36;98337.22;;;7.16;98.63
57000;BME280;42891;50.006;21.964;2023-02-18T22:45:36;98354.31;;;7.11;98.04
57000;BME280;42891;50.006;21.964;2023-02-18T22:49:36;98334.50;;;6.97;97.28
57000;BME280;42891;50.006;21.964;2023-02-18T22:53:38;98366.09;;;7.16;97.07
57000;BME280;42891;50.006;21.964;2023-02-18T22:57:38;98369.34;;;7.09;96.74
57000;BME280;42891;50.006;21.964;2023-02-18T23:01:41;98378.50;;;7.14;97.09
57000;BME280;42891;50.006;21.964;2023-02-18T23:05:41;98380.69;;;6.88;97.02
57000;BME280;42891;50.006;21.964;2023-02-18T23:09:42;98411.38;;;7.09;96.75